sensor_id;sensor_type;location;lat;lon;timestamp;P1;durP1;ratioP1;P2;durP2;ratioP2
21798;SDS011;24973;47.178;15.316;2022-11-23T00:01:25;0.50;;;0.50;;
21798;SDS011;24973;47.178;15.316;2022-11-23T00:04:16;2.40;;;0.83;;
21798;SDS011;24973;47.178;15.316;2022-11-23T00:07:05;0.87;;;0.87;;
21798;SDS011;24973;47.178;15.316;2022-11-23T00:09:55;0.37;;;0.37;;
21798;SDS011;24973;47.178;15.316;2022-11-23T00:12:44;0.70;;;0.70;;
21798;SDS011;24973;47.178;15.316;2022-11-23T00:15:33;0.90;;;0.80;;
21798;SDS011;24973;47.178;15.316;2022-11-23T00:18:22;0.80;;;0.70;;
21798;SDS011;24973;47.178;15.316;2022-11-23T00:21:12;1.13;;;0.77;;
21798;SDS011;24973;47.178;15.316;2022-11-23T00:24:03;1.33;;;0.70;;
21798;SDS011;24973;47.178;15.316;2022-11-23T00:26:54;0.67;;;0.67;;
21798;SDS011;24973;47.178;15.316;2022-11-23T00:29:43;0.77;;;0.77;;
21798;SDS011;24973;47.178;15.316;2022-11-23T00:32:32;0.47;;;0.47;;
21798;SDS011;24973;47.178;15.316;2022-11-23T00:35:21;1.37;;;0.43;;
21798;SDS011;24973;47.178;15.316;2022-11-23T00:38:10;1.07;;;0.70;;
21798;SDS011;24973;47.178;15.316;2022-11-23T00:41:00;0.60;;;0.60;;
21798;SDS011;24973;47.178;15.316;2022-11-23T00:43:54;0.60;;;0.60;;
21798;SDS011;24973;47.178;15.316;2022-11-23T00:46:43;0.47;;;0.47;;
21798;SDS011;24973;47.178;15.316;2022-11-23T00:49:31;0.60;;;0.60;;
21798;SDS011;24973;47.178;15.316;2022-11-23T00:52:20;0.50;;;0.50;;
21798;SDS011;24973;47.178;15.316;2022-11-23T00:55:10;0.50;;;0.50;;
21798;SDS011;24973;47.178;15.316;2022-11-23T00:57:59;1.00;;;0.70;;
21798;SDS011;24973;47.178;15.316;2022-11-23T01:00:49;0.43;;;0.43;;
21798;SDS011;24973;47.178;15.316;2022-11-23T01:03:47;0.67;;;0.67;;
21798;SDS011;24973;47.178;15.316;2022-11-23T01:06:39;1.77;;;0.50;;
21798;SDS011;24973;47.178;15.316;2022-11-23T01:09:28;0.50;;;0.50;;
21798;SDS011;24973;47.178;15.316;2022-11-23T01:12:17;0.60;;;0.43;;
21798;SDS011;24973;47.178;15.316;2022-11-23T01:15:06;0.47;;;0.47;;
21798;SDS011;24973;47.178;15.316;2022-11-23T01:17:58;0.50;;;0.50;;
21798;SDS011;24973;47.178;15.316;2022-11-23T01:20:47;0.40;;;0.40;;
21798;SDS011;24973;47.178;15.316;2022-11-23T01:23:36;0.40;;;0.40;;
21798;SDS011;24973;47.178;15.316;2022-11-23T01:26:25;0.60;;;0.60;;
21798;SDS011;24973;47.178;15.316;2022-11-23T01:29:14;0.57;;;0.47;;
21798;SDS011;24973;47.178;15.316;2022-11-23T01:32:03;0.30;;;0.30;;
21798;SDS011;24973;47.178;15.316;2022-11-23T01:34:53;0.47;;;0.47;;
21798;SDS011;24973;47.178;15.316;2022-11-23T01:37:42;0.80;;;0.60;;
21798;SDS011;24973;47.178;15.316;2022-11-23T01:40:37;1.23;;;0.50;;
21798;SDS011;24973;47.178;15.316;2022-11-23T01:43:27;0.80;;;0.80;;
21798;SDS011;24973;47.178;15.316;2022-11-23T01:46:16;0.40;;;0.40;;
21798;SDS011;24973;47.178;15.316;2022-11-23T01:49:06;0.97;;;0.60;;
21798;SDS011;24973;47.178;15.316;2022-11-23T01:51:57;0.60;;;0.60;;
21798;SDS011;24973;47.178;15.316;2022-11-23T01:54:50;1.27;;;0.40;;
21798;SDS011;24973;47.178;15.316;2022-11-23T01:57:43;0.83;;;0.70;;
21798;SDS011;24973;47.178;15.316;2022-11-23T02:00:32;0.60;;;0.50;;
21798;SDS011;24973;47.178;15.316;2022-11-23T02:03:21;1.37;;;0.73;;
21798;SDS011;24973;47.178;15.316;2022-11-23T02:06:12;0.63;;;0.50;;
21798;SDS011;24973;47.178;15.316;2022-11-23T02:09:06;0.57;;;0.57;;
21798;SDS011;24973;47.178;15.316;2022-11-23T02:11:55;1.03;;;0.60;;
21798;SDS011;24973;47.178;15.316;2022-11-23T02:14:44;0.53;;;0.53;;
21798;SDS011;24973;47.178;15.316;2022-11-23T02:17:33;0.47;;;0.47;;
21798;SDS011;24973;47.178;15.316;2022-11-23T02:20:22;0.40;;;0.40;;
21798;SDS011;24973;47.178;15.316;2022-11-23T02:23:14;0.50;;;0.50;;
21798;SDS011;24973;47.178;15.316;2022-11-23T02:26:18;0.47;;;0.47;;
21798;SDS011;24973;47.178;15.316;2022-11-23T02:29:10;0.40;;;0.40;;
21798;SDS011;24973;47.178;15.316;2022-11-23T02:32:03;0.57;;;0.57;;
21798;SDS011;24973;47.178;15.316;2022-11-23T02:34:52;0.83;;;0.50;;
21798;SDS011;24973;47.178;15.316;2022-11-23T02:37:41;1.00;;;0.70;;
21798;SDS011;24973;47.178;15.316;2022-11-23T02:40:31;0.47;;;0.47;;
21798;SDS011;24973;47.178;15.316;2022-11-23T02:43:24;0.50;;;0.50;;
21798;SDS011;24973;47.178;15.316;2022-11-23T02:46:13;0.50;;;0.50;;
21798;SDS011;24973;47.178;15.316;2022-11-23T02:49:02;0.50;;;0.50;;
21798;SDS011;24973;47.178;15.316;2022-11-23T02:51:51;0.57;;;0.57;;
21798;SDS011;24973;47.178;15.316;2022-11-23T02:54:40;0.50;;;0.50;;
21798;SDS011;24973;47.178;15.316;2022-11-23T02:57:29;0.30;;;0.30;;
21798;SDS011;24973;47.178;15.316;2022-11-23T03:00:19;0.43;;;0.40;;
21798;SDS011;24973;47.178;15.316;2022-11-23T03:03:08;0.50;;;0.50;;
21798;SDS011;24973;47.178;15.316;2022-11-23T03:05:57;0.70;;;0.70;;
21798;SDS011;24973;47.178;15.316;2022-11-23T03:08:46;0.53;;;0.53;;
21798;SDS011;24973;47.178;15.316;2022-11-23T03:11:35;0.50;;;0.50;;
21798;SDS011;24973;47.178;15.316;2022-11-23T03:14:24;0.20;;;0.20;;
21798;SDS011;24973;47.178;15.316;2022-11-23T03:17:14;0.30;;;0.30;;
21798;SDS011;24973;47.178;15.316;2022-11-23T03:20:03;0.57;;;0.57;;
21798;SDS011;24973;47.178;15.316;2022-11-23T03:22:54;0.60;;;0.60;;
21798;SDS011;24973;47.178;15.316;2022-11-23T03:25:42;0.30;;;0.30;;
21798;SDS011;24973;47.178;15.316;2022-11-23T03:28:31;1.03;;;0.70;;
21798;SDS011;24973;47.178;15.316;2022-11-23T03:31:20;0.47;;;0.47;;
21798;SDS011;24973;47.178;15.316;2022-11-23T03:34:11;0.40;;;0.40;;
21798;SDS011;24973;47.178;15.316;2022-11-23T03:37:00;0.30;;;0.30;;
21798;SDS011;24973;47.178;15.316;2022-11-23T03:39:49;0.40;;;0.40;;
21798;SDS011;24973;47.178;15.316;2022-11-23T03:42:39;0.40;;;0.40;;
21798;SDS011;24973;47.178;15.316;2022-11-23T03:45:28;0.30;;;0.30;;
21798;SDS011;24973;47.178;15.316;2022-11-23T03:48:17;0.70;;;0.70;;
21798;SDS011;24973;47.178;15.316;2022-11-23T03:51:07;0.30;;;0.30;;
21798;SDS011;24973;47.178;15.316;2022-11-23T03:53:56;0.40;;;0.40;;
21798;SDS011;24973;47.178;15.316;2022-11-23T03:56:45;0.50;;;0.50;;
21798;SDS011;24973;47.178;15.316;2022-11-23T03:59:34;0.30;;;0.30;;
21798;SDS011;24973;47.178;15.316;2022-11-23T04:02:23;0.40;;;0.40;;
21798;SDS011;24973;47.178;15.316;2022-11-23T04:05:12;0.40;;;0.40;;
21798;SDS011;24973;47.178;15.316;2022-11-23T04:08:02;0.60;;;0.60;;
21798;SDS011;24973;47.178;15.316;2022-11-23T04:10:52;0.50;;;0.40;;
21798;SDS011;24973;47.178;15.316;2022-11-23T04:13:44;0.40;;;0.30;;
21798;SDS011;24973;47.178;15.316;2022-11-23T04:16:33;0.60;;;0.40;;
21798;SDS011;24973;47.178;15.316;2022-11-23T04:19:22;0.40;;;0.40;;
21798;SDS011;24973;47.178;15.316;2022-11-23T04:22:11;0.77;;;0.67;;
21798;SDS011;24973;47.178;15.316;2022-11-23T04:25:01;0.40;;;0.40;;
21798;SDS011;24973;47.178;15.316;2022-11-23T04:27:50;0.53;;;0.40;;
21798;SDS011;24973;47.178;15.316;2022-11-23T04:30:38;0.30;;;0.30;;
21798;SDS011;24973;47.178;15.316;2022-11-23T04:33:27;4.47;;;0.60;;
21798;SDS011;24973;47.178;15.316;2022-11-23T04:36:17;0.50;;;0.50;;
21798;SDS011;24973;47.178;15.316;2022-11-23T04:39:05;0.33;;;0.33;;
21798;SDS011;24973;47.178;15.316;2022-11-23T04:41:55;0.30;;;0.30;;
21798;SDS011;24973;47.178;15.316;2022-11-23T04:44:44;0.60;;;0.60;;
21798;SDS011;24973;47.178;15.316;2022-11-23T04:47:33;0.70;;;0.60;;
21798;SDS011;24973;47.178;15.316;2022-11-23T04:50:22;0.50;;;0.50;;
21798;SDS011;24973;47.178;15.316;2022-11-23T04:53:11;1.80;;;0.50;;
21798;SDS011;24973;47.178;15.316;2022-11-23T04:55:59;0.50;;;0.50;;
21798;SDS011;24973;47.178;15.316;2022-11-23T04:58:50;0.60;;;0.60;;
21798;SDS011;24973;47.178;15.316;2022-11-23T05:01:38;0.57;;;0.57;;
21798;SDS011;24973;47.178;15.316;2022-11-23T05:04:27;0.60;;;0.60;;
21798;SDS011;24973;47.178;15.316;2022-11-23T05:07:16;0.50;;;0.50;;
21798;SDS011;24973;47.178;15.316;2022-11-23T05:10:05;0.40;;;0.40;;
21798;SDS011;24973;47.178;15.316;2022-11-23T05:12:54;2.47;;;0.87;;
21798;SDS011;24973;47.178;15.316;2022-11-23T05:15:44;0.60;;;0.60;;
21798;SDS011;24973;47.178;15.316;2022-11-23T05:18:33;0.50;;;0.50;;
21798;SDS011;24973;47.178;15.316;2022-11-23T05:21:22;1.17;;;0.50;;
21798;SDS011;24973;47.178;15.316;2022-11-23T05:24:10;0.67;;;0.67;;
21798;SDS011;24973;47.178;15.316;2022-11-23T05:26:59;0.50;;;0.50;;
21798;SDS011;24973;47.178;15.316;2022-11-23T05:29:48;0.40;;;0.40;;
21798;SDS011;24973;47.178;15.316;2022-11-23T05:32:38;0.40;;;0.40;;
21798;SDS011;24973;47.178;15.316;2022-11-23T05:35:27;0.57;;;0.57;;
21798;SDS011;24973;47.178;15.316;2022-11-23T05:38:16;1.17;;;1.00;;
21798;SDS011;24973;47.178;15.316;2022-11-23T05:41:05;1.03;;;0.73;;
21798;SDS011;24973;47.178;15.316;2022-11-23T05:43:54;2.00;;;0.40;;
21798;SDS011;24973;47.178;15.316;2022-11-23T05:46:42;3.90;;;0.70;;
21798;SDS011;24973;47.178;15.316;2022-11-23T05:49:32;0.30;;;0.30;;
21798;SDS011;24973;47.178;15.316;2022-11-23T05:52:23;0.47;;;0.47;;
21798;SDS011;24973;47.178;15.316;2022-11-23T05:55:12;0.83;;;0.77;;
21798;SDS011;24973;47.178;15.316;2022-11-23T05:58:02;0.83;;;0.67;;
21798;SDS011;24973;47.178;15.316;2022-11-23T06:00:50;0.70;;;0.70;;
21798;SDS011;24973;47.178;15.316;2022-11-23T06:03:39;0.63;;;0.63;;
21798;SDS011;24973;47.178;15.316;2022-11-23T06:06:29;0.50;;;0.50;;
21798;SDS011;24973;47.178;15.316;2022-11-23T06:09:18;0.50;;;0.50;;
21798;SDS011;24973;47.178;15.316;2022-11-23T06:12:06;0.60;;;0.40;;
21798;SDS011;24973;47.178;15.316;2022-11-23T06:14:55;1.10;;;0.60;;
21798;SDS011;24973;47.178;15.316;2022-11-23T06:17:44;0.53;;;0.53;;
21798;SDS011;24973;47.178;15.316;2022-11-23T06:20:33;0.60;;;0.60;;
21798;SDS011;24973;47.178;15.316;2022-11-23T06:23:23;0.30;;;0.30;;
21798;SDS011;24973;47.178;15.316;2022-11-23T06:26:11;0.87;;;0.63;;
21798;SDS011;24973;47.178;15.316;2022-11-23T06:29:00;0.40;;;0.40;;
21798;SDS011;24973;47.178;15.316;2022-11-23T06:31:49;1.07;;;0.50;;
21798;SDS011;24973;47.178;15.316;2022-11-23T06:34:37;0.57;;;0.57;;
21798;SDS011;24973;47.178;15.316;2022-11-23T06:37:26;1.13;;;0.73;;
21798;SDS011;24973;47.178;15.316;2022-11-23T06:40:16;0.30;;;0.30;;
21798;SDS011;24973;47.178;15.316;2022-11-23T06:43:05;0.30;;;0.30;;
21798;SDS011;24973;47.178;15.316;2022-11-23T06:45:54;0.67;;;0.67;;
21798;SDS011;24973;47.178;15.316;2022-11-23T06:48:43;0.40;;;0.40;;
21798;SDS011;24973;47.178;15.316;2022-11-23T06:51:32;0.77;;;0.67;;
21798;SDS011;24973;47.178;15.316;2022-11-23T06:54:21;0.93;;;0.50;;
21798;SDS011;24973;47.178;15.316;2022-11-23T06:57:14;0.63;;;0.63;;
21798;SDS011;24973;47.178;15.316;2022-11-23T07:00:04;0.60;;;0.60;;
21798;SDS011;24973;47.178;15.316;2022-11-23T07:02:54;0.57;;;0.57;;
21798;SDS011;24973;47.178;15.316;2022-11-23T07:05:43;0.40;;;0.40;;
21798;SDS011;24973;47.178;15.316;2022-11-23T07:08:32;0.50;;;0.50;;
21798;SDS011;24973;47.178;15.316;2022-11-23T07:11:21;1.03;;;0.50;;
21798;SDS011;24973;47.178;15.316;2022-11-23T07:14:11;0.30;;;0.30;;
21798;SDS011;24973;47.178;15.316;2022-11-23T07:17:00;0.53;;;0.50;;
21798;SDS011;24973;47.178;15.316;2022-11-23T07:19:48;0.80;;;0.50;;
21798;SDS011;24973;47.178;15.316;2022-11-23T07:22:37;0.40;;;0.40;;
21798;SDS011;24973;47.178;15.316;2022-11-23T07:25:26;0.50;;;0.50;;
21798;SDS011;24973;47.178;15.316;2022-11-23T07:28:15;1.90;;;0.70;;
21798;SDS011;24973;47.178;15.316;2022-11-23T07:31:06;0.30;;;0.30;;
21798;SDS011;24973;47.178;15.316;2022-11-23T07:33:54;0.43;;;0.43;;
21798;SDS011;24973;47.178;15.316;2022-11-23T07:36:43;1.00;;;0.63;;
21798;SDS011;24973;47.178;15.316;2022-11-23T07:39:32;0.40;;;0.40;;
21798;SDS011;24973;47.178;15.316;2022-11-23T07:42:40;0.30;;;0.30;;
21798;SDS011;24973;47.178;15.316;2022-11-23T07:45:30;0.57;;;0.57;;
21798;SDS011;24973;47.178;15.316;2022-11-23T07:48:22;0.50;;;0.50;;
21798;SDS011;24973;47.178;15.316;2022-11-23T07:51:11;0.40;;;0.40;;
21798;SDS011;24973;47.178;15.316;2022-11-23T07:54:00;0.20;;;0.20;;
21798;SDS011;24973;47.178;15.316;2022-11-23T07:56:49;0.60;;;0.43;;
21798;SDS011;24973;47.178;15.316;2022-11-23T07:59:37;0.50;;;0.50;;
21798;SDS011;24973;47.178;15.316;2022-11-23T08:02:26;0.30;;;0.30;;
21798;SDS011;24973;47.178;15.316;2022-11-23T08:05:16;0.40;;;0.40;;
21798;SDS011;24973;47.178;15.316;2022-11-23T08:08:05;0.93;;;0.60;;
21798;SDS011;24973;47.178;15.316;2022-11-23T08:10:54;0.30;;;0.30;;
21798;SDS011;24973;47.178;15.316;2022-11-23T08:13:42;0.57;;;0.50;;
21798;SDS011;24973;47.178;15.316;2022-11-23T08:16:31;1.30;;;0.60;;
21798;SDS011;24973;47.178;15.316;2022-11-23T08:19:20;0.43;;;0.40;;
21798;SDS011;24973;47.178;15.316;2022-11-23T08:22:10;0.50;;;0.50;;
21798;SDS011;24973;47.178;15.316;2022-11-23T08:25:01;0.40;;;0.40;;
21798;SDS011;24973;47.178;15.316;2022-11-23T08:27:53;0.50;;;0.50;;
21798;SDS011;24973;47.178;15.316;2022-11-23T08:30:42;0.40;;;0.40;;
21798;SDS011;24973;47.178;15.316;2022-11-23T08:33:31;0.30;;;0.30;;
21798;SDS011;24973;47.178;15.316;2022-11-23T08:36:20;0.53;;;0.43;;
21798;SDS011;24973;47.178;15.316;2022-11-23T08:39:10;0.40;;;0.40;;
21798;SDS011;24973;47.178;15.316;2022-11-23T08:42:00;0.33;;;0.33;;
21798;SDS011;24973;47.178;15.316;2022-11-23T08:44:49;0.50;;;0.50;;
21798;SDS011;24973;47.178;15.316;2022-11-23T08:47:37;0.40;;;0.40;;
21798;SDS011;24973;47.178;15.316;2022-11-23T08:50:26;0.40;;;0.40;;
21798;SDS011;24973;47.178;15.316;2022-11-23T08:53:16;1.13;;;0.70;;
21798;SDS011;24973;47.178;15.316;2022-11-23T08:56:06;0.30;;;0.30;;
21798;SDS011;24973;47.178;15.316;2022-11-23T08:58:56;2.03;;;0.40;;
21798;SDS011;24973;47.178;15.316;2022-11-23T09:01:45;0.50;;;0.50;;
21798;SDS011;24973;47.178;15.316;2022-11-23T09:04:33;0.33;;;0.33;;
21798;SDS011;24973;47.178;15.316;2022-11-23T09:07:22;1.03;;;0.73;;
21798;SDS011;24973;47.178;15.316;2022-11-23T09:10:11;1.13;;;0.50;;
21798;SDS011;24973;47.178;15.316;2022-11-23T09:13:04;0.50;;;0.50;;
21798;SDS011;24973;47.178;15.316;2022-11-23T09:15:55;1.13;;;0.70;;
21798;SDS011;24973;47.178;15.316;2022-11-23T09:18:45;0.77;;;0.60;;
21798;SDS011;24973;47.178;15.316;2022-11-23T09:21:35;0.60;;;0.60;;
21798;SDS011;24973;47.178;15.316;2022-11-23T09:24:25;0.40;;;0.40;;
21798;SDS011;24973;47.178;15.316;2022-11-23T09:27:13;0.40;;;0.40;;
21798;SDS011;24973;47.178;15.316;2022-11-23T09:30:04;0.40;;;0.40;;
21798;SDS011;24973;47.178;15.316;2022-11-23T09:32:54;0.30;;;0.30;;
21798;SDS011;24973;47.178;15.316;2022-11-23T09:35:43;0.87;;;0.80;;
21798;SDS011;24973;47.178;15.316;2022-11-23T09:38:32;0.60;;;0.60;;
21798;SDS011;24973;47.178;15.316;2022-11-23T09:41:44;0.83;;;0.43;;
21798;SDS011;24973;47.178;15.316;2022-11-23T09:45:13;0.93;;;0.40;;
21798;SDS011;24973;47.178;15.316;2022-11-23T09:51:28;0.50;;;0.47;;
21798;SDS011;24973;47.178;15.316;2022-11-23T09:54:22;0.50;;;0.50;;
21798;SDS011;24973;47.178;15.316;2022-11-23T09:57:16;0.87;;;0.47;;
21798;SDS011;24973;47.178;15.316;2022-11-23T10:00:16;0.37;;;0.37;;
21798;SDS011;24973;47.178;15.316;2022-11-23T10:03:10;0.40;;;0.40;;
21798;SDS011;24973;47.178;15.316;2022-11-23T10:06:03;1.57;;;0.60;;
21798;SDS011;24973;47.178;15.316;2022-11-23T10:09:12;0.30;;;0.23;;
21798;SDS011;24973;47.178;15.316;2022-11-23T10:12:20;0.40;;;0.40;;
21798;SDS011;24973;47.178;15.316;2022-11-23T10:15:31;0.60;;;0.60;;
21798;SDS011;24973;47.178;15.316;2022-11-23T10:18:29;1.00;;;0.73;;
21798;SDS011;24973;47.178;15.316;2022-11-23T10:21:29;0.80;;;0.80;;
21798;SDS011;24973;47.178;15.316;2022-11-23T10:24:30;0.73;;;0.73;;
21798;SDS011;24973;47.178;15.316;2022-11-23T10:27:22;0.50;;;0.50;;
21798;SDS011;24973;47.178;15.316;2022-11-23T10:30:12;0.30;;;0.30;;
21798;SDS011;24973;47.178;15.316;2022-11-23T10:33:18;0.40;;;0.40;;
21798;SDS011;24973;47.178;15.316;2022-11-23T10:36:24;0.50;;;0.50;;
21798;SDS011;24973;47.178;15.316;2022-11-23T10:39:16;0.47;;;0.47;;
21798;SDS011;24973;47.178;15.316;2022-11-23T10:42:13;0.57;;;0.57;;
21798;SDS011;24973;47.178;15.316;2022-11-23T10:45:15;0.87;;;0.40;;
21798;SDS011;24973;47.178;15.316;2022-11-23T10:48:09;2.10;;;1.90;;
21798;SDS011;24973;47.178;15.316;2022-11-23T10:51:03;2.17;;;1.83;;
21798;SDS011;24973;47.178;15.316;2022-11-23T10:54:04;0.80;;;0.77;;
21798;SDS011;24973;47.178;15.316;2022-11-23T10:57:19;0.60;;;0.50;;
21798;SDS011;24973;47.178;15.316;2022-11-23T11:00:15;0.80;;;0.80;;
21798;SDS011;24973;47.178;15.316;2022-11-23T11:03:20;0.60;;;0.60;;
21798;SDS011;24973;47.178;15.316;2022-11-23T11:06:11;0.70;;;0.60;;
21798;SDS011;24973;47.178;15.316;2022-11-23T11:09:16;0.50;;;0.50;;
21798;SDS011;24973;47.178;15.316;2022-11-23T11:12:13;0.40;;;0.40;;
21798;SDS011;24973;47.178;15.316;2022-11-23T11:15:13;0.60;;;0.60;;
21798;SDS011;24973;47.178;15.316;2022-11-23T11:18:06;0.30;;;0.23;;
21798;SDS011;24973;47.178;15.316;2022-11-23T11:21:09;0.40;;;0.40;;
21798;SDS011;24973;47.178;15.316;2022-11-23T11:24:12;0.40;;;0.40;;
21798;SDS011;24973;47.178;15.316;2022-11-23T11:27:05;0.33;;;0.33;;
21798;SDS011;24973;47.178;15.316;2022-11-23T11:30:03;0.63;;;0.63;;
21798;SDS011;24973;47.178;15.316;2022-11-23T11:32:55;0.50;;;0.50;;
21798;SDS011;24973;47.178;15.316;2022-11-23T11:35:54;0.63;;;0.63;;
21798;SDS011;24973;47.178;15.316;2022-11-23T11:38:44;0.50;;;0.50;;
21798;SDS011;24973;47.178;15.316;2022-11-23T11:41:47;0.60;;;0.60;;
21798;SDS011;24973;47.178;15.316;2022-11-23T11:44:39;1.60;;;0.60;;
21798;SDS011;24973;47.178;15.316;2022-11-23T11:47:31;0.60;;;0.50;;
21798;SDS011;24973;47.178;15.316;2022-11-23T11:50:25;0.60;;;0.60;;
21798;SDS011;24973;47.178;15.316;2022-11-23T11:53:21;1.50;;;1.40;;
21798;SDS011;24973;47.178;15.316;2022-11-23T11:56:15;1.57;;;1.27;;
21798;SDS011;24973;47.178;15.316;2022-11-23T11:59:16;0.90;;;0.90;;
21798;SDS011;24973;47.178;15.316;2022-11-23T12:02:17;1.40;;;0.93;;
21798;SDS011;24973;47.178;15.316;2022-11-23T12:05:10;0.47;;;0.47;;
21798;SDS011;24973;47.178;15.316;2022-11-23T12:08:09;0.50;;;0.50;;
21798;SDS011;24973;47.178;15.316;2022-11-23T12:11:03;0.43;;;0.43;;
21798;SDS011;24973;47.178;15.316;2022-11-23T12:13:53;0.60;;;0.50;;
21798;SDS011;24973;47.178;15.316;2022-11-23T12:16:49;1.07;;;0.70;;
21798;SDS011;24973;47.178;15.316;2022-11-23T12:20:04;0.50;;;0.43;;
21798;SDS011;24973;47.178;15.316;2022-11-23T12:23:08;0.40;;;0.40;;
21798;SDS011;24973;47.178;15.316;2022-11-23T12:26:14;0.30;;;0.30;;
21798;SDS011;24973;47.178;15.316;2022-11-23T12:29:18;0.50;;;0.50;;
21798;SDS011;24973;47.178;15.316;2022-11-23T12:32:21;2.43;;;0.57;;
21798;SDS011;24973;47.178;15.316;2022-11-23T12:38:44;1.37;;;0.90;;
21798;SDS011;24973;47.178;15.316;2022-11-23T12:41:43;2.37;;;0.50;;
21798;SDS011;24973;47.178;15.316;2022-11-23T12:44:48;0.57;;;0.57;;
21798;SDS011;24973;47.178;15.316;2022-11-23T12:47:48;2.87;;;0.80;;
21798;SDS011;24973;47.178;15.316;2022-11-23T12:50:46;0.77;;;0.77;;
21798;SDS011;24973;47.178;15.316;2022-11-23T12:53:48;7.37;;;0.90;;
21798;SDS011;24973;47.178;15.316;2022-11-23T12:56:59;0.60;;;0.60;;
21798;SDS011;24973;47.178;15.316;2022-11-23T12:59:57;3.33;;;0.70;;
21798;SDS011;24973;47.178;15.316;2022-11-23T13:06:52;0.77;;;0.53;;
21798;SDS011;24973;47.178;15.316;2022-11-23T13:10:34;1.33;;;0.83;;
21798;SDS011;24973;47.178;15.316;2022-11-23T13:13:40;1.87;;;0.90;;
21798;SDS011;24973;47.178;15.316;2022-11-23T13:16:47;1.20;;;0.83;;
21798;SDS011;24973;47.178;15.316;2022-11-23T13:23:27;0.97;;;0.57;;
21798;SDS011;24973;47.178;15.316;2022-11-23T13:26:23;1.37;;;0.87;;
21798;SDS011;24973;47.178;15.316;2022-11-23T13:32:45;0.87;;;0.50;;
21798;SDS011;24973;47.178;15.316;2022-11-23T13:35:51;0.83;;;0.60;;
21798;SDS011;24973;47.178;15.316;2022-11-23T13:38:49;0.93;;;0.90;;
21798;SDS011;24973;47.178;15.316;2022-11-23T13:44:48;1.93;;;1.00;;
21798;SDS011;24973;47.178;15.316;2022-11-23T13:48:05;0.57;;;0.57;;
21798;SDS011;24973;47.178;15.316;2022-11-23T13:51:24;1.90;;;0.90;;
21798;SDS011;24973;47.178;15.316;2022-11-23T13:54:17;2.43;;;0.80;;
21798;SDS011;24973;47.178;15.316;2022-11-23T13:57:10;0.70;;;0.70;;
21798;SDS011;24973;47.178;15.316;2022-11-23T14:03:44;3.27;;;0.77;;
21798;SDS011;24973;47.178;15.316;2022-11-23T14:06:41;0.73;;;0.70;;
21798;SDS011;24973;47.178;15.316;2022-11-23T14:09:34;0.50;;;0.50;;
21798;SDS011;24973;47.178;15.316;2022-11-23T14:12:32;0.80;;;0.70;;
21798;SDS011;24973;47.178;15.316;2022-11-23T14:15:26;3.80;;;0.80;;
21798;SDS011;24973;47.178;15.316;2022-11-23T14:18:28;2.57;;;1.40;;
21798;SDS011;24973;47.178;15.316;2022-11-23T14:21:38;1.00;;;1.00;;
21798;SDS011;24973;47.178;15.316;2022-11-23T14:24:43;1.00;;;0.87;;
21798;SDS011;24973;47.178;15.316;2022-11-23T14:27:51;3.07;;;0.83;;
21798;SDS011;24973;47.178;15.316;2022-11-23T14:30:56;7.47;;;1.00;;
21798;SDS011;24973;47.178;15.316;2022-11-23T14:34:00;1.17;;;1.07;;
21798;SDS011;24973;47.178;15.316;2022-11-23T14:37:00;2.97;;;1.53;;
21798;SDS011;24973;47.178;15.316;2022-11-23T14:40:04;2.80;;;2.60;;
21798;SDS011;24973;47.178;15.316;2022-11-23T14:43:01;3.07;;;2.10;;
21798;SDS011;24973;47.178;15.316;2022-11-23T14:45:51;2.20;;;1.63;;
21798;SDS011;24973;47.178;15.316;2022-11-23T14:48:47;4.60;;;1.53;;
21798;SDS011;24973;47.178;15.316;2022-11-23T14:51:38;6.93;;;1.40;;
21798;SDS011;24973;47.178;15.316;2022-11-23T14:54:30;9.37;;;3.07;;
21798;SDS011;24973;47.178;15.316;2022-11-23T14:57:19;8.90;;;2.10;;
21798;SDS011;24973;47.178;15.316;2022-11-23T15:00:22;7.53;;;1.90;;
21798;SDS011;24973;47.178;15.316;2022-11-23T15:03:17;1.50;;;1.27;;
21798;SDS011;24973;47.178;15.316;2022-11-23T15:06:31;5.50;;;1.07;;
21798;SDS011;24973;47.178;15.316;2022-11-23T15:09:43;1.27;;;0.93;;
21798;SDS011;24973;47.178;15.316;2022-11-23T15:12:52;0.83;;;0.83;;
21798;SDS011;24973;47.178;15.316;2022-11-23T15:15:43;2.20;;;1.83;;
21798;SDS011;24973;47.178;15.316;2022-11-23T15:18:46;3.03;;;2.43;;
21798;SDS011;24973;47.178;15.316;2022-11-23T15:21:38;1.07;;;1.00;;
21798;SDS011;24973;47.178;15.316;2022-11-23T15:24:41;1.30;;;1.20;;
21798;SDS011;24973;47.178;15.316;2022-11-23T15:27:52;4.50;;;1.77;;
21798;SDS011;24973;47.178;15.316;2022-11-23T15:30:46;3.30;;;2.20;;
21798;SDS011;24973;47.178;15.316;2022-11-23T15:33:44;2.40;;;1.67;;
21798;SDS011;24973;47.178;15.316;2022-11-23T15:36:47;1.17;;;1.13;;
21798;SDS011;24973;47.178;15.316;2022-11-23T15:39:39;3.07;;;2.43;;
21798;SDS011;24973;47.178;15.316;2022-11-23T15:42:45;8.63;;;2.90;;
21798;SDS011;24973;47.178;15.316;2022-11-23T15:46:01;3.00;;;2.00;;
21798;SDS011;24973;47.178;15.316;2022-11-23T15:49:00;3.90;;;2.13;;
21798;SDS011;24973;47.178;15.316;2022-11-23T15:52:01;6.83;;;3.47;;
21798;SDS011;24973;47.178;15.316;2022-11-23T15:54:51;3.63;;;2.57;;
21798;SDS011;24973;47.178;15.316;2022-11-23T16:00:56;1.00;;;0.93;;
21798;SDS011;24973;47.178;15.316;2022-11-23T16:03:53;2.40;;;1.23;;
21798;SDS011;24973;47.178;15.316;2022-11-23T16:10:26;3.20;;;1.93;;
21798;SDS011;24973;47.178;15.316;2022-11-23T16:13:40;2.73;;;1.93;;
21798;SDS011;24973;47.178;15.316;2022-11-23T16:17:11;8.37;;;7.03;;
21798;SDS011;24973;47.178;15.316;2022-11-23T16:20:11;6.77;;;2.13;;
21798;SDS011;24973;47.178;15.316;2022-11-23T16:26:37;1.53;;;1.30;;
21798;SDS011;24973;47.178;15.316;2022-11-23T16:29:49;1.97;;;1.50;;
21798;SDS011;24973;47.178;15.316;2022-11-23T16:32:48;1.50;;;1.40;;
21798;SDS011;24973;47.178;15.316;2022-11-23T16:38:47;1.73;;;1.63;;
21798;SDS011;24973;47.178;15.316;2022-11-23T16:41:36;3.47;;;1.90;;
21798;SDS011;24973;47.178;15.316;2022-11-23T16:44:35;1.93;;;1.83;;
21798;SDS011;24973;47.178;15.316;2022-11-23T16:47:27;5.17;;;2.17;;
21798;SDS011;24973;47.178;15.316;2022-11-23T16:50:22;2.60;;;2.07;;
21798;SDS011;24973;47.178;15.316;2022-11-23T16:53:13;3.57;;;2.97;;
21798;SDS011;24973;47.178;15.316;2022-11-23T16:56:30;1.70;;;1.27;;
21798;SDS011;24973;47.178;15.316;2022-11-23T16:59:20;3.23;;;2.13;;
21798;SDS011;24973;47.178;15.316;2022-11-23T17:02:36;4.53;;;3.10;;
21798;SDS011;24973;47.178;15.316;2022-11-23T17:08:38;4.90;;;2.47;;
21798;SDS011;24973;47.178;15.316;2022-11-23T17:11:28;3.23;;;2.00;;
21798;SDS011;24973;47.178;15.316;2022-11-23T17:14:37;3.73;;;2.07;;
21798;SDS011;24973;47.178;15.316;2022-11-23T17:17:30;2.33;;;2.13;;
21798;SDS011;24973;47.178;15.316;2022-11-23T17:20:23;2.67;;;2.33;;
21798;SDS011;24973;47.178;15.316;2022-11-23T17:23:12;2.93;;;2.03;;
21798;SDS011;24973;47.178;15.316;2022-11-23T17:26:03;4.03;;;2.70;;
21798;SDS011;24973;47.178;15.316;2022-11-23T17:29:21;5.10;;;3.60;;
21798;SDS011;24973;47.178;15.316;2022-11-23T17:32:16;6.10;;;3.77;;
21798;SDS011;24973;47.178;15.316;2022-11-23T17:35:05;4.60;;;4.20;;
21798;SDS011;24973;47.178;15.316;2022-11-23T17:37:57;4.97;;;2.93;;
21798;SDS011;24973;47.178;15.316;2022-11-23T17:40:46;3.73;;;1.83;;
21798;SDS011;24973;47.178;15.316;2022-11-23T17:43:37;2.37;;;2.17;;
21798;SDS011;24973;47.178;15.316;2022-11-23T17:46:31;1.47;;;1.27;;
21798;SDS011;24973;47.178;15.316;2022-11-23T17:49:20;2.13;;;1.67;;
21798;SDS011;24973;47.178;15.316;2022-11-23T17:52:13;2.70;;;2.17;;